createdAt,value
2023-04-16T00:02:41.522Z,84.50
2023-04-16T00:05:35.142Z,84.60
2023-04-16T00:08:28.930Z,84.86
2023-04-16T00:11:19.561Z,85.28
2023-04-16T00:14:10.545Z,85.33
2023-04-16T00:17:03.741Z,85.40
2023-04-16T00:19:54.796Z,85.63
2023-04-16T00:22:45.529Z,85.82
2023-04-16T00:25:36.244Z,86.05
2023-04-16T00:28:27.723Z,86.49
2023-04-16T00:31:18.369Z,86.90
2023-04-16T00:34:10.510Z,87.14
2023-04-16T00:37:01.898Z,87.62
2023-04-16T00:39:55.824Z,88.15
2023-04-16T00:42:51.897Z,87.66
2023-04-16T00:45:42.499Z,87.54
2023-04-16T00:48:33.240Z,87.55
2023-04-16T00:51:27.221Z,87.85
2023-04-16T00:54:18.863Z,87.50
2023-04-16T00:57:09.550Z,87.43
2023-04-16T01:00:00.279Z,87.34
2023-04-16T01:02:50.987Z,87.31
2023-04-16T01:06:02.352Z,87.19
2023-04-16T01:08:52.958Z,87.46
2023-04-16T01:11:43.561Z,87.48
2023-04-16T01:14:36.553Z,87.52
2023-04-16T01:17:27.293Z,87.50
2023-04-16T01:20:18.158Z,87.55
2023-04-16T01:23:11.929Z,87.66
2023-04-16T01:26:02.886Z,87.77
2023-04-16T01:28:53.657Z,87.86
2023-04-16T01:31:44.422Z,87.97
2023-04-16T01:34:43.566Z,88.15
2023-04-16T01:37:34.271Z,88.56
2023-04-16T01:40:27.899Z,88.67
2023-04-16T01:43:24.499Z,88.82
2023-04-16T01:46:22.549Z,88.98
2023-04-16T01:49:16.589Z,89.23
2023-04-16T01:52:08.532Z,89.60
2023-04-16T01:55:02.869Z,89.99
2023-04-16T01:57:53.559Z,90.09
2023-04-16T02:00:46.248Z,90.90
2023-04-16T02:03:40.181Z,91.06
2023-04-16T02:06:31.807Z,91.17
2023-04-16T02:09:21.997Z,91.16
2023-04-16T02:12:12.757Z,91.26
2023-04-16T02:15:03.617Z,91.97
2023-04-16T02:17:57.380Z,91.33
2023-04-16T02:20:49.767Z,91.75
2023-04-16T02:23:41.611Z,91.36
2023-04-16T02:26:31.855Z,91.03
2023-04-16T02:29:27.781Z,91.22
2023-04-16T02:32:23.579Z,91.00
2023-04-16T02:35:22.792Z,90.98
2023-04-16T02:38:22.792Z,91.00
2023-04-16T02:41:13.563Z,90.99
2023-04-16T02:44:04.204Z,91.04
2023-04-16T02:46:54.928Z,91.05
2023-04-16T02:49:46.150Z,91.03
2023-04-16T02:52:57.182Z,91.24
2023-04-16T02:55:50.660Z,91.39
2023-04-16T02:58:41.468Z,91.60
2023-04-16T03:01:32.477Z,91.51
2023-04-16T03:04:23.354Z,91.63
2023-04-16T03:07:14.180Z,91.91
2023-04-16T03:10:09.496Z,92.16
2023-04-16T03:13:04.342Z,92.57
2023-04-16T03:15:54.934Z,93.18
2023-04-16T03:18:45.716Z,93.62
2023-04-16T03:21:36.263Z,94.39
2023-04-16T03:24:28.278Z,94.50
2023-04-16T03:27:21.812Z,94.85
2023-04-16T03:30:14.086Z,95.28
2023-04-16T03:33:04.662Z,95.64
2023-04-16T03:35:58.827Z,95.88
2023-04-16T03:38:53.824Z,95.78
2023-04-16T03:41:47.501Z,95.93
2023-04-16T03:44:41.486Z,95.84
2023-04-16T03:47:32.930Z,94.84
2023-04-16T03:50:26.756Z,94.87
2023-04-16T03:53:20.513Z,94.98
2023-04-16T03:56:16.493Z,95.22
2023-04-16T03:59:15.461Z,94.70
2023-04-16T04:02:07.742Z,94.33
2023-04-16T04:04:58.741Z,94.34
2023-04-16T04:07:54.051Z,94.21
2023-04-16T04:10:46.050Z,94.24
2023-04-16T04:13:37.819Z,94.31
2023-04-16T04:16:28.673Z,94.16
2023-04-16T04:19:22.915Z,94.35
2023-04-16T04:22:17.089Z,94.56
2023-04-16T04:25:08.797Z,94.75
2023-04-16T04:27:59.501Z,95.50
2023-04-16T04:30:55.367Z,96.19
2023-04-16T04:33:46.033Z,96.34
2023-04-16T04:36:40.884Z,97.63
2023-04-16T04:39:32.034Z,97.46
2023-04-16T04:42:24.153Z,97.55
2023-04-16T04:45:19.789Z,97.31
2023-04-16T04:48:19.830Z,97.16
2023-04-16T04:51:15.726Z,97.07
2023-04-16T04:54:10.339Z,98.25
2023-04-16T04:57:08.809Z,98.71
2023-04-16T05:00:04.526Z,98.48
2023-04-16T05:03:04.370Z,98.61
2023-04-16T05:05:58.425Z,98.12
2023-04-16T05:08:57.089Z,97.49
2023-04-16T05:11:50.865Z,97.14
2023-04-16T05:14:49.220Z,96.79
2023-04-16T05:17:42.316Z,96.53
2023-04-16T05:20:37.954Z,96.29
2023-04-16T05:23:31.904Z,96.16
2023-04-16T05:26:25.136Z,96.34
2023-04-16T05:29:18.568Z,96.48
2023-04-16T05:32:15.214Z,96.37
2023-04-16T05:35:06.599Z,96.48
2023-04-16T05:37:57.199Z,96.36
2023-04-16T05:40:50.109Z,96.69
2023-04-16T05:43:44.458Z,97.28
2023-04-16T05:46:40.972Z,97.80
2023-04-16T05:49:34.752Z,97.67
2023-04-16T05:52:29.025Z,98.32
2023-04-16T05:55:20.092Z,98.71
2023-04-16T05:58:12.999Z,99.35
2023-04-16T06:01:08.667Z,99.68
2023-04-16T06:04:04.660Z,99.55
2023-04-16T06:07:01.336Z,99.35
2023-04-16T06:09:51.907Z,99.29
2023-04-16T06:12:47.347Z,99.19
2023-04-16T06:15:40.648Z,98.92
2023-04-16T06:18:31.816Z,98.64
2023-04-16T06:21:22.492Z,98.51
2023-04-16T06:24:13.484Z,98.59
2023-04-16T06:27:04.761Z,98.60
2023-04-16T06:29:55.222Z,98.34
2023-04-16T06:32:46.795Z,98.29
2023-04-16T06:35:41.040Z,98.38
2023-04-16T06:38:31.586Z,98.55
2023-04-16T06:41:22.810Z,98.54
2023-04-16T06:44:13.242Z,98.89
2023-04-16T06:47:03.976Z,98.89
2023-04-16T06:49:55.203Z,98.73
2023-04-16T06:52:45.619Z,98.25
2023-04-16T06:55:36.344Z,97.90
2023-04-16T06:58:27.685Z,97.52
2023-04-16T07:01:24.386Z,97.54
2023-04-16T07:04:15.132Z,97.43
2023-04-16T07:07:05.812Z,97.41
2023-04-16T07:09:56.422Z,97.26
2023-04-16T07:12:46.924Z,97.17
2023-04-16T07:15:37.527Z,97.32
2023-04-16T07:18:28.330Z,97.07
2023-04-16T07:21:18.884Z,96.85
2023-04-16T07:24:09.551Z,96.92
2023-04-16T07:27:00.147Z,97.19
2023-04-16T07:29:51.068Z,97.54
2023-04-16T07:32:41.468Z,97.70
2023-04-16T07:35:32.440Z,97.74
2023-04-16T07:38:22.926Z,97.37
2023-04-16T07:41:14.117Z,96.77
2023-04-16T07:44:04.722Z,96.56
2023-04-16T07:46:56.298Z,96.49
2023-04-16T07:49:46.881Z,96.89
2023-04-16T07:52:39.014Z,96.51
2023-04-16T07:55:29.213Z,95.99
2023-04-16T07:58:19.805Z,95.35
2023-04-16T08:01:10.630Z,95.02
2023-04-16T08:04:01.765Z,94.80
2023-04-16T08:06:52.938Z,94.39
2023-04-16T08:09:50.680Z,94.35
2023-04-16T08:12:44.612Z,94.09
2023-04-16T08:15:36.432Z,93.94
2023-04-16T08:18:30.325Z,93.71
2023-04-16T08:21:23.451Z,93.54
2023-04-16T08:24:19.608Z,93.38
2023-04-16T08:27:19.281Z,93.33
2023-04-16T08:30:20.239Z,93.42
2023-04-16T08:33:14.510Z,93.21
2023-04-16T08:36:07.655Z,93.32
2023-04-16T08:38:58.411Z,93.05
2023-04-16T08:41:49.016Z,92.31
2023-04-16T08:44:46.368Z,92.65
2023-04-16T08:47:40.194Z,92.51
2023-04-16T08:50:31.840Z,92.66
2023-04-16T08:53:24.415Z,92.25
2023-04-16T08:56:16.161Z,91.86
2023-04-16T08:59:07.629Z,90.97
2023-04-16T09:01:59.588Z,90.39
2023-04-16T09:04:51.540Z,90.02
2023-04-16T09:07:43.169Z,89.80
2023-04-16T09:10:34.160Z,89.16
2023-04-16T09:13:24.701Z,88.45
2023-04-16T09:16:16.071Z,87.81
2023-04-16T09:19:06.365Z,87.32
2023-04-16T09:21:57.060Z,86.70
2023-04-16T09:24:47.567Z,86.27
2023-04-16T09:27:38.704Z,85.79
2023-04-16T09:30:29.276Z,84.69
2023-04-16T09:33:23.023Z,83.82
2023-04-16T09:36:13.572Z,83.09
2023-04-16T09:39:05.149Z,82.43
2023-04-16T09:41:56.383Z,81.80
2023-04-16T09:44:50.947Z,81.57
2023-04-16T09:47:42.204Z,81.10
2023-04-16T09:50:32.866Z,80.53
2023-04-16T09:53:26.922Z,80.17
2023-04-16T09:56:17.508Z,79.98
2023-04-16T09:59:08.395Z,79.95
2023-04-16T10:02:14.831Z,79.86
2023-04-16T10:05:07.910Z,79.55
2023-04-16T10:08:01.455Z,79.18
2023-04-16T10:10:52.035Z,78.97
2023-04-16T10:13:42.593Z,78.61
2023-04-16T10:16:33.905Z,78.39
2023-04-16T10:19:24.379Z,78.13
2023-04-16T10:22:14.799Z,77.58
2023-04-16T10:25:05.711Z,77.46
2023-04-16T10:27:56.836Z,76.95
2023-04-16T10:30:54.030Z,76.20
2023-04-16T10:33:45.563Z,75.79
2023-04-16T10:36:38.121Z,75.44
2023-04-16T10:39:30.026Z,75.22
2023-04-16T10:42:21.954Z,75.05
2023-04-16T10:45:13.634Z,74.87
2023-04-16T10:48:08.766Z,74.60
2023-04-16T10:51:00.263Z,74.28
2023-04-16T10:53:51.136Z,73.11
2023-04-16T10:56:42.400Z,72.80
2023-04-16T10:59:35.133Z,72.69
2023-04-16T11:02:29.828Z,72.02
2023-04-16T11:05:22.820Z,71.77
2023-04-16T11:08:16.565Z,70.25
2023-04-16T11:11:08.388Z,68.79
2023-04-16T11:13:59.425Z,67.75
2023-04-16T11:16:51.095Z,65.19
2023-04-16T11:19:43.633Z,63.40
2023-04-16T11:22:38.860Z,62.34
2023-04-16T11:25:30.872Z,60.85
2023-04-16T11:28:21.634Z,56.52
2023-04-16T11:31:13.934Z,52.36
2023-04-16T11:34:04.898Z,49.56
2023-04-16T11:36:55.412Z,47.89
2023-04-16T11:39:53.780Z,47.34
2023-04-16T11:42:44.565Z,46.20
2023-04-16T11:45:35.357Z,43.95
2023-04-16T11:48:25.903Z,43.05
2023-04-16T11:51:16.818Z,40.31
2023-04-16T11:54:10.359Z,39.20
2023-04-16T11:57:04.485Z,37.43
2023-04-16T12:00:02.342Z,35.76
2023-04-16T12:03:04.512Z,34.63
2023-04-16T12:05:54.901Z,34.13
2023-04-16T12:08:45.589Z,32.49
2023-04-16T12:11:42.841Z,31.71
2023-04-16T12:14:34.086Z,30.91
2023-04-16T12:17:25.055Z,29.82
2023-04-16T12:20:18.729Z,28.76
2023-04-16T12:23:09.508Z,28.16
2023-04-16T12:26:10.896Z,28.58
2023-04-16T12:29:15.193Z,28.57
2023-04-16T12:32:07.251Z,28.19
2023-04-16T12:34:58.402Z,27.04
2023-04-16T12:37:48.966Z,27.78
2023-04-16T12:40:39.859Z,28.04
2023-04-16T12:43:30.419Z,27.65
2023-04-16T12:46:21.089Z,29.07
2023-04-16T12:49:12.706Z,30.30
2023-04-16T12:52:03.455Z,31.56
2023-04-16T12:54:54.299Z,31.76
2023-04-16T12:57:54.850Z,33.14
2023-04-16T13:00:45.945Z,34.25
2023-04-16T13:03:38.668Z,35.72
2023-04-16T13:06:30.266Z,37.10
2023-04-16T13:09:45.508Z,38.43
2023-04-16T13:12:35.899Z,37.33
2023-04-16T13:15:49.081Z,36.78
2023-04-16T13:19:11.892Z,35.57
2023-04-16T13:23:16.919Z,35.01
2023-04-16T13:26:34.905Z,34.22
2023-04-16T13:33:22.969Z,32.73
2023-04-16T13:36:33.478Z,33.11
2023-04-16T13:39:24.340Z,33.01
2023-04-16T13:42:15.174Z,32.71
2023-04-16T13:45:06.396Z,32.48
2023-04-16T13:47:57.537Z,32.22
2023-04-16T13:50:48.257Z,32.02
2023-04-16T13:53:41.383Z,32.39
2023-04-16T13:56:33.030Z,32.16
2023-04-16T13:59:23.541Z,30.74
2023-04-16T14:02:14.342Z,31.15
2023-04-16T14:05:05.658Z,33.07
2023-04-16T14:07:56.434Z,34.45
2023-04-16T14:10:47.265Z,34.71
2023-04-16T14:13:38.253Z,35.23
2023-04-16T14:16:29.779Z,35.58
2023-04-16T14:19:20.709Z,35.84
2023-04-16T14:22:11.285Z,36.51
2023-04-16T14:25:02.584Z,36.98
2023-04-16T14:28:15.706Z,37.48
2023-04-16T14:31:06.931Z,38.66
2023-04-16T14:33:58.171Z,39.61
2023-04-16T14:36:49.258Z,39.46
2023-04-16T14:39:41.637Z,39.72
2023-04-16T14:42:32.797Z,40.12
2023-04-16T14:45:26.615Z,41.12
2023-04-16T14:48:17.145Z,42.12
2023-04-16T14:51:08.196Z,42.97
2023-04-16T14:53:58.929Z,43.72
2023-04-16T14:56:49.674Z,44.40
2023-04-16T14:59:41.171Z,45.04
2023-04-16T15:02:32.228Z,45.80
2023-04-16T15:05:23.207Z,46.51
2023-04-16T15:08:14.151Z,46.95
2023-04-16T15:11:04.905Z,47.67
2023-04-16T15:13:55.874Z,47.95
2023-04-16T15:16:46.699Z,48.03
2023-04-16T15:19:37.354Z,47.44
2023-04-16T15:22:28.120Z,47.54
2023-04-16T15:25:18.990Z,47.94
2023-04-16T15:28:09.518Z,48.45
2023-04-16T15:31:00.823Z,48.49
2023-04-16T15:33:51.599Z,48.47
2023-04-16T15:36:43.104Z,48.66
2023-04-16T15:39:34.675Z,48.95
2023-04-16T15:42:26.134Z,49.32
2023-04-16T15:45:17.201Z,49.34
2023-04-16T15:48:08.191Z,49.47
2023-04-16T15:50:58.942Z,49.19
2023-04-16T15:53:50.707Z,49.12
2023-04-16T15:56:41.789Z,49.63
2023-04-16T15:59:32.934Z,49.96
2023-04-16T16:02:23.692Z,50.84
2023-04-16T16:05:15.457Z,50.91
2023-04-16T16:08:06.501Z,51.37
2023-04-16T16:10:57.801Z,52.10
2023-04-16T16:13:48.704Z,52.06
2023-04-16T16:16:39.938Z,52.17
2023-04-16T16:19:52.452Z,52.22
2023-04-16T16:22:45.364Z,52.59
2023-04-16T16:25:36.081Z,52.78
2023-04-16T16:28:27.273Z,52.97
2023-04-16T16:31:17.896Z,52.71
2023-04-16T16:34:12.653Z,52.72
2023-04-16T16:37:08.466Z,52.65
2023-04-16T16:40:01.463Z,52.62
2023-04-16T16:42:52.394Z,52.89
2023-04-16T16:45:44.737Z,53.14
2023-04-16T16:48:35.460Z,53.37
2023-04-16T16:51:26.503Z,53.67
2023-04-16T16:54:16.891Z,53.92
2023-04-16T16:57:07.585Z,54.11
2023-04-16T16:59:58.925Z,54.27
2023-04-16T17:02:51.532Z,54.66
2023-04-16T17:05:41.907Z,54.79
2023-04-16T17:08:32.496Z,54.63
2023-04-16T17:11:22.980Z,54.69
2023-04-16T17:14:13.595Z,54.45
2023-04-16T17:17:04.240Z,54.88
2023-04-16T17:19:54.968Z,55.38
2023-04-16T17:22:46.142Z,55.57
2023-04-16T17:25:36.786Z,55.84
2023-04-16T17:28:27.679Z,56.11
2023-04-16T17:31:18.424Z,55.72
2023-04-16T17:34:10.066Z,55.41
2023-04-16T17:37:01.737Z,55.47
2023-04-16T17:39:52.457Z,55.31
2023-04-16T17:42:43.486Z,55.73
2023-04-16T17:45:34.239Z,55.99
2023-04-16T17:48:25.065Z,56.35
2023-04-16T17:51:17.598Z,56.79
2023-04-16T17:54:07.999Z,57.11
2023-04-16T17:57:00.711Z,57.39
2023-04-16T17:59:51.299Z,57.65
2023-04-16T18:02:42.552Z,57.85
2023-04-16T18:05:33.394Z,58.19
2023-04-16T18:08:25.555Z,58.49
2023-04-16T18:11:18.055Z,58.69
2023-04-16T18:14:10.134Z,58.99
2023-04-16T18:17:03.062Z,59.30
2023-04-16T18:19:54.956Z,59.77
2023-04-16T18:22:45.552Z,59.95
2023-04-16T18:25:36.467Z,60.13
2023-04-16T18:28:27.768Z,60.45
2023-04-16T18:31:21.029Z,60.79
2023-04-16T18:37:03.465Z,61.42
2023-04-16T18:39:56.099Z,61.84
2023-04-16T18:42:47.830Z,62.06
2023-04-16T18:45:38.549Z,62.34
2023-04-16T18:48:32.121Z,62.67
2023-04-16T18:51:23.569Z,62.69
2023-04-16T18:54:14.281Z,62.95
2023-04-16T19:30:50.388Z,66.15
2023-04-16T19:36:47.656Z,66.82
2023-04-16T19:40:01.206Z,67.14
2023-04-16T19:43:08.447Z,67.22
2023-04-16T19:46:16.984Z,67.57
2023-04-16T19:49:13.228Z,68.08
2023-04-16T19:55:51.587Z,68.74
2023-04-16T19:58:46.006Z,69.10
2023-04-16T20:01:52.321Z,69.24
2023-04-16T20:04:43.255Z,69.35
2023-04-16T20:07:52.083Z,69.44
2023-04-16T20:10:49.449Z,69.48
2023-04-16T20:17:20.160Z,69.90
2023-04-16T20:20:16.131Z,69.90
2023-04-16T20:23:27.768Z,70.05
2023-04-16T20:26:34.596Z,70.23
2023-04-16T20:29:51.662Z,70.42
2023-04-16T20:38:09.844Z,70.93
2023-04-16T20:41:42.284Z,71.19
2023-04-16T20:48:25.796Z,71.52
2023-04-16T20:48:53.873Z,71.66
2023-04-16T20:55:40.511Z,72.35
2023-04-16T20:59:13.572Z,72.49
2023-04-16T21:02:35.927Z,72.82
2023-04-16T21:05:26.901Z,72.74
2023-04-16T21:12:41.535Z,73.19
2023-04-16T21:15:32.261Z,73.33
2023-04-16T21:18:23.433Z,73.64
2023-04-16T21:21:34.280Z,73.97
2023-04-16T21:24:27.968Z,73.97
2023-04-16T21:27:20.990Z,74.36
2023-04-16T21:30:12.954Z,74.60
2023-04-16T21:33:04.130Z,74.26
2023-04-16T21:35:58.497Z,74.31
2023-04-16T21:38:49.316Z,74.27
2023-04-16T21:41:40.488Z,74.50
2023-04-16T21:44:33.875Z,74.45
2023-04-16T21:47:33.100Z,74.38
2023-04-16T21:50:26.977Z,74.18
2023-04-16T21:53:18.632Z,74.26
2023-04-16T21:56:19.943Z,74.49
2023-04-16T22:02:19.721Z,74.77
2023-04-16T22:05:11.495Z,75.25
2023-04-16T22:08:16.915Z,75.42
2023-04-16T22:11:18.883Z,75.40
2023-04-16T22:14:12.485Z,75.36
2023-04-16T22:17:03.878Z,75.38
2023-04-16T22:19:55.464Z,75.69
2023-04-16T22:23:07.908Z,75.88
2023-04-16T22:26:17.153Z,76.13
2023-04-16T22:29:10.980Z,76.33
2023-04-16T22:32:04.451Z,76.33
2023-04-16T22:34:58.006Z,76.31
2023-04-16T22:37:54.036Z,76.41
2023-04-16T22:40:48.174Z,76.65
2023-04-16T22:43:38.850Z,76.46
2023-04-16T22:46:35.407Z,75.73
2023-04-16T22:49:33.229Z,75.10
2023-04-16T22:52:24.203Z,74.65
2023-04-16T22:55:18.240Z,73.97
2023-04-16T22:58:08.886Z,73.51
2023-04-16T23:01:02.999Z,73.23
2023-04-16T23:03:53.820Z,72.81
2023-04-16T23:06:49.508Z,72.49
2023-04-16T23:09:47.562Z,72.18
2023-04-16T23:12:41.380Z,71.86
2023-04-16T23:15:35.055Z,71.78
2023-04-16T23:18:35.278Z,71.59
2023-04-16T23:21:28.882Z,71.30
2023-04-16T23:24:22.093Z,71.49
2023-04-16T23:27:12.669Z,71.51
2023-04-16T23:30:06.929Z,71.42
2023-04-16T23:33:00.726Z,71.44
2023-04-16T23:35:51.512Z,71.60
2023-04-16T23:38:45.428Z,71.56
2023-04-16T23:41:38.629Z,71.69
2023-04-16T23:44:31.731Z,71.70
2023-04-16T23:47:23.387Z,71.78
2023-04-16T23:50:14.508Z,71.81
2023-04-16T23:53:05.361Z,71.84
2023-04-16T23:55:59.113Z,71.81
2023-04-16T23:58:49.904Z,71.81
